Time;durP1;ratioP1;P1;durP2;ratioP2;P2;SDS_P1;SDS_P2;PMS_P1;PMS_P2;Temp;Humidity;BMP_temperature;BMP_pressure;BME280_temperature;BME280_humidity;BME280_pressure;Samples;Min_cycle;Max_cycle;Signal;HPM_P1;HPM_P2
2023/03/12 00:00:45;;;;;;;1.97;1.87;;;;;-0.90;95518.00;;;;5073132;28;20596;-69
2023/03/12 00:03:13;;;;;;;2.57;2.40;;;;;-0.90;95526.00;;;;5072997;28;20215;-69
2023/03/12 00:05:41;;;;;;;2.13;2.00;;;;;-0.90;95531.00;;;;5073510;28;20218;-69
2023/03/12 00:08:11;;;;;;;1.80;1.53;;;;;-0.90;95516.00;;;;5072994;28;20186;-69
2023/03/12 00:10:40;;;;;;;3.57;2.43;;;;;-1.10;95530.00;;;;5072831;28;20193;-67
2023/03/12 00:13:08;;;;;;;2.97;2.40;;;;;-1.00;95526.00;;;;5072803;28;20203;-70
2023/03/12 00:15:37;;;;;;;1.90;1.80;;;;;-0.90;95517.00;;;;5073058;28;20549;-69
2023/03/12 00:18:05;;;;;;;1.83;1.73;;;;;-0.90;95521.00;;;;5072790;28;20324;-68
2023/03/12 00:20:32;;;;;;;2.43;1.80;;;;;-0.90;95523.00;;;;5072998;28;20327;-67
2023/03/12 00:23:00;;;;;;;2.03;1.93;;;;;-1.00;95525.00;;;;5073038;28;20192;-67
2023/03/12 00:25:29;;;;;;;2.13;1.93;;;;;-1.00;95519.00;;;;5075442;28;20191;-67
2023/03/12 00:27:56;;;;;;;1.17;1.13;;;;;-1.10;95517.00;;;;5076718;28;20220;-69
2023/03/12 00:30:26;;;;;;;2.13;1.97;;;;;-1.00;95517.00;;;;5076612;28;20187;-67
2023/03/12 00:32:54;;;;;;;6.13;2.47;;;;;-0.90;95517.00;;;;5058667;28;20206;-68
2023/03/12 00:35:21;;;;;;;1.73;1.63;;;;;-0.90;95520.00;;;;5076757;28;20555;-68
2023/03/12 00:37:49;;;;;;;3.33;3.00;;;;;-1.00;95507.00;;;;5076471;28;20207;-68
2023/03/12 00:40:16;;;;;;;3.97;1.77;;;;;-1.10;95524.00;;;;5076453;28;20190;-68
2023/03/12 00:42:45;;;;;;;1.93;1.83;;;;;-1.00;95514.00;;;;5076416;28;20191;-69
2023/03/12 00:45:12;;;;;;;1.87;1.77;;;;;-1.10;95505.00;;;;5076710;28;20212;-67
2023/03/12 00:47:40;;;;;;;1.60;1.50;;;;;-1.00;95512.00;;;;5076444;28;20667;-67
2023/03/12 00:50:08;;;;;;;0.90;0.90;;;;;-1.10;95515.00;;;;5076212;28;20191;-67
2023/03/12 00:52:36;;;;;;;1.87;1.77;;;;;-1.10;95499.00;;;;5076258;28;20195;-67
2023/03/12 00:55:04;;;;;;;1.07;1.07;;;;;-1.00;95502.00;;;;5076260;28;20240;-68
2023/03/12 00:57:31;;;;;;;1.57;1.47;;;;;-0.90;95506.00;;;;5076102;28;20297;-68
2023/03/12 01:00:00;;;;;;;1.57;1.47;;;;;-0.90;95502.00;;;;5076324;28;20196;-68
2023/03/12 01:02:28;;;;;;;1.20;1.20;;;;;-0.80;95500.00;;;;5076072;28;20242;-68
2023/03/12 01:04:55;;;;;;;2.50;1.93;;;;;-0.90;95498.00;;;;5075952;28;20215;-68
2023/03/12 01:07:22;;;;;;;1.40;1.30;;;;;-0.80;95494.00;;;;5076290;28;20188;-69
2023/03/12 01:09:50;;;;;;;1.37;1.27;;;;;-0.70;95507.00;;;;5076205;28;20543;-68
2023/03/12 01:12:17;;;;;;;1.47;1.37;;;;;-0.70;95503.00;;;;5076110;28;20198;-69
2023/03/12 01:14:45;;;;;;;1.00;1.00;;;;;-0.90;95505.00;;;;5075595;28;20230;-68
2023/03/12 01:17:13;;;;;;;0.83;0.83;;;;;-0.80;95499.00;;;;5075819;28;20681;-68
2023/03/12 01:19:41;;;;;;;2.30;2.10;;;;;-0.90;95505.00;;;;5075742;28;20690;-69
2023/03/12 01:22:08;;;;;;;1.63;1.53;;;;;-1.10;95495.00;;;;5075892;28;20199;-68
2023/03/12 01:24:36;;;;;;;1.23;1.23;;;;;-1.20;95501.00;;;;5075551;28;20211;-68
2023/03/12 01:27:03;;;;;;;1.70;1.60;;;;;-1.20;95510.00;;;;5058101;28;20657;-69
2023/03/12 01:29:31;;;;;;;1.17;1.17;;;;;-1.20;95504.00;;;;5075583;28;20191;-69
2023/03/12 01:31:58;;;;;;;1.20;1.20;;;;;-1.10;95511.00;;;;5075593;28;20211;-68
2023/03/12 01:34:27;;;;;;;1.40;1.40;;;;;-1.00;95506.00;;;;5057814;28;20559;-68
2023/03/12 01:36:55;;;;;;;1.00;1.00;;;;;-0.90;95518.00;;;;5074840;28;20204;-68
2023/03/12 01:39:24;;;;;;;1.33;1.33;;;;;-0.90;95502.00;;;;5075586;28;20208;-69
2023/03/12 01:41:52;;;;;;;2.03;1.93;;;;;-0.80;95503.00;;;;5075295;28;20246;-68
2023/03/12 01:44:19;;;;;;;2.03;1.93;;;;;-0.80;95507.00;;;;5057270;28;20678;-68
2023/03/12 01:46:47;;;;;;;1.40;1.30;;;;;-0.80;95504.00;;;;5075742;28;20591;-69
2023/03/12 01:49:17;;;;;;;1.97;1.83;;;;;-0.80;95499.00;;;;5075181;28;20198;-69
2023/03/12 01:51:49;;;;;;;1.77;1.67;;;;;-0.90;95505.00;;;;5075121;28;20573;-68
2023/03/12 01:54:20;;;;;;;1.43;1.43;;;;;-0.80;95500.00;;;;5075166;28;20211;-68
2023/03/12 01:56:49;;;;;;;1.70;1.60;;;;;-0.70;95493.00;;;;5075592;28;20183;-68
2023/03/12 01:59:21;;;;;;;1.97;1.87;;;;;-0.60;95492.00;;;;5075188;28;20230;-69
2023/03/12 02:01:50;;;;;;;2.03;1.90;;;;;-0.60;95497.00;;;;5075043;28;20187;-68
2023/03/12 02:04:20;;;;;;;3.50;1.53;;;;;-0.60;95503.00;;;;5074907;28;20208;-68
2023/03/12 02:06:53;;;;;;;4.60;2.87;;;;;-0.60;95493.00;;;;5075307;28;20233;-68
2023/03/12 02:09:21;;;;;;;1.80;1.70;;;;;-0.60;95498.00;;;;5075175;28;20183;-68
2023/03/12 02:11:49;;;;;;;1.87;1.77;;;;;-0.70;95489.00;;;;5075050;28;20567;-67
2023/03/12 02:14:17;;;;;;;2.63;2.53;;;;;-0.80;95482.00;;;;5074570;28;20211;-67
2023/03/12 02:16:45;;;;;;;1.90;1.80;;;;;-0.70;95485.00;;;;5074634;28;20203;-68
2023/03/12 02:19:21;;;;;;;0.93;0.93;;;;;-0.80;95503.00;;;;5074908;28;20226;-68
2023/03/12 02:21:50;;;;;;;1.87;1.77;;;;;-0.80;95498.00;;;;5074642;28;20188;-68
2023/03/12 02:24:28;;;;;;;3.07;2.77;;;;;-0.80;95501.00;;;;5074396;28;20264;-67
2023/03/12 02:26:57;;;;;;;1.27;1.20;;;;;-0.70;95491.00;;;;5075015;28;20247;-68
2023/03/12 02:29:25;;;;;;;24.63;1.83;;;;;-0.70;95494.00;;;;5074721;28;20242;-70
2023/03/12 02:31:55;;;;;;;1.90;1.60;;;;;-0.60;95487.00;;;;5074361;28;20245;-68
2023/03/12 02:34:22;;;;;;;1.73;1.63;;;;;-0.60;95483.00;;;;5074631;28;20294;-67
2023/03/12 02:36:50;;;;;;;1.40;1.30;;;;;-0.60;95499.00;;;;5075019;28;20705;-68
2023/03/12 02:39:18;;;;;;;0.80;0.80;;;;;-0.50;95508.00;;;;5075017;28;20219;-68
2023/03/12 02:41:49;;;;;;;4.10;2.40;;;;;-0.60;95498.00;;;;5075234;28;20283;-70
2023/03/12 02:44:20;;;;;;;2.00;1.73;;;;;-0.50;95497.00;;;;5056188;28;20212;-69
2023/03/12 02:46:50;;;;;;;1.43;1.00;;;;;-0.50;95492.00;;;;5073407;28;20177;-69
2023/03/12 02:49:19;;;;;;;1.13;1.10;;;;;-0.40;95486.00;;;;5074605;28;20192;-70
2023/03/12 02:51:47;;;;;;;2.17;1.97;;;;;-0.40;95490.00;;;;5074004;28;20195;-69
2023/03/12 02:54:16;;;;;;;1.17;1.17;;;;;-0.30;95487.00;;;;5073839;28;20212;-69
2023/03/12 02:56:44;;;;;;;1.00;1.00;;;;;-0.20;95490.00;;;;5074127;28;20524;-69
2023/03/12 02:59:12;;;;;;;1.50;1.40;;;;;-0.20;95486.00;;;;5074042;28;20215;-69
2023/03/12 03:01:41;;;;;;;1.50;1.43;;;;;-0.20;95476.00;;;;5073868;28;20227;-69
2023/03/12 03:04:10;;;;;;;1.77;1.40;;;;;-0.20;95469.00;;;;5073829;28;20217;-69
2023/03/12 03:06:39;;;;;;;0.83;0.83;;;;;-0.30;95475.00;;;;5055831;28;20286;-69
2023/03/12 03:09:07;;;;;;;0.87;0.87;;;;;-0.30;95465.00;;;;5073612;28;20249;-68
2023/03/12 03:11:34;;;;;;;0.80;0.80;;;;;-0.30;95467.00;;;;5073865;28;20566;-69
2023/03/12 03:14:03;;;;;;;0.80;0.80;;;;;-0.30;95466.00;;;;5073402;28;20219;-68
2023/03/12 03:16:30;;;;;;;2.30;1.33;;;;;-0.40;95461.00;;;;5073665;28;20223;-68
2023/03/12 03:18:59;;;;;;;1.57;1.47;;;;;-0.30;95466.00;;;;5073413;28;20210;-68
2023/03/12 03:21:27;;;;;;;3.07;1.57;;;;;-0.30;95473.00;;;;5073733;28;20535;-68
2023/03/12 03:23:54;;;;;;;1.07;1.07;;;;;-0.20;95475.00;;;;5073605;28;20578;-68
2023/03/12 03:26:23;;;;;;;1.30;1.20;;;;;-0.20;95471.00;;;;5073367;28;20192;-68
2023/03/12 03:28:50;;;;;;;1.20;1.10;;;;;-0.30;95481.00;;;;5073410;28;20690;-68
2023/03/12 03:31:18;;;;;;;1.53;1.43;;;;;-0.30;95482.00;;;;5073263;28;20192;-68
2023/03/12 03:33:47;;;;;;;2.87;1.53;;;;;-0.30;95477.00;;;;5073245;28;20556;-68
2023/03/12 03:36:17;;;;;;;1.00;1.00;;;;;-0.30;95487.00;;;;5055377;28;20196;-69
2023/03/12 03:38:48;;;;;;;0.97;0.97;;;;;-0.30;95499.00;;;;5073356;28;20216;-68
2023/03/12 03:41:16;;;;;;;1.10;1.10;;;;;-0.30;95474.00;;;;5073474;28;20188;-69
2023/03/12 03:43:43;;;;;;;4.20;1.77;;;;;-0.30;95483.00;;;;5073162;28;20227;-68
2023/03/12 03:46:13;;;;;;;3.20;1.00;;;;;-0.30;95487.00;;;;5073418;28;20198;-68
2023/03/12 03:48:41;;;;;;;1.00;1.00;;;;;-0.30;95472.00;;;;5073373;28;20548;-68
2023/03/12 03:51:09;;;;;;;15.33;1.77;;;;;-0.30;95470.00;;;;5073536;28;20248;-68
2023/03/12 03:53:38;;;;;;;1.20;1.20;;;;;-0.20;95469.00;;;;5072986;28;20215;-68
2023/03/12 03:56:07;;;;;;;0.80;0.80;;;;;-0.20;95464.00;;;;5073017;28;20268;-68
2023/03/12 03:58:34;;;;;;;1.10;1.10;;;;;-0.20;95462.00;;;;5072664;28;20656;-68
2023/03/12 04:01:02;;;;;;;1.37;1.37;;;;;-0.20;95462.00;;;;5073476;28;20253;-68
2023/03/12 04:03:29;;;;;;;1.00;1.00;;;;;-0.20;95465.00;;;;5073086;28;20213;-68
2023/03/12 04:05:59;;;;;;;1.50;1.40;;;;;-0.20;95463.00;;;;5072964;28;20199;-69
2023/03/12 04:08:27;;;;;;;1.23;1.23;;;;;-0.30;95467.00;;;;5073033;28;20208;-69
2023/03/12 04:10:56;;;;;;;1.50;1.40;;;;;-0.20;95453.00;;;;5073327;28;20184;-67
2023/03/12 04:13:23;;;;;;;1.20;1.07;;;;;-0.20;95467.00;;;;5073131;28;20285;-68
2023/03/12 04:15:53;;;;;;;1.03;1.03;;;;;-0.10;95470.00;;;;5070166;22;20244;-59
2023/03/12 04:18:21;;;;;;;1.20;1.20;;;;;-0.10;95481.00;;;;5052813;28;20655;-59
2023/03/12 04:20:48;;;;;;;1.13;1.13;;;;;-0.20;95470.00;;;;5034782;28;20726;-59
2023/03/12 04:23:15;;;;;;;0.90;0.90;;;;;-0.20;95452.00;;;;5052755;28;20205;-60
2023/03/12 04:25:43;;;;;;;1.50;1.40;;;;;-0.10;95452.00;;;;5052626;28;20227;-59
2023/03/12 04:28:12;;;;;;;0.97;0.97;;;;;0.00;95461.00;;;;5052776;28;20197;-60
2023/03/12 04:30:39;;;;;;;0.97;0.97;;;;;0.00;95464.00;;;;5051355;28;20247;-60
2023/03/12 04:33:07;;;;;;;1.17;1.17;;;;;0.00;95462.00;;;;5052631;28;20194;-59
2023/03/12 04:35:35;;;;;;;0.90;0.90;;;;;0.20;95458.00;;;;5052783;28;20268;-60
2023/03/12 04:38:02;;;;;;;1.30;1.30;;;;;0.20;95452.00;;;;5034801;28;20201;-59
2023/03/12 04:40:30;;;;;;;0.80;0.80;;;;;0.20;95460.00;;;;5052454;28;20213;-60
2023/03/12 04:42:57;;;;;;;1.53;1.43;;;;;0.30;95472.00;;;;5052756;28;20196;-60
2023/03/12 04:45:26;;;;;;;0.90;0.90;;;;;0.30;95452.00;;;;5052625;28;20221;-59
2023/03/12 04:47:54;;;;;;;1.23;1.23;;;;;0.40;95448.00;;;;5052504;28;20204;-59
2023/03/12 04:50:21;;;;;;;0.80;0.80;;;;;0.30;95447.00;;;;5052485;28;20194;-59
2023/03/12 04:52:49;;;;;;;0.70;0.70;;;;;0.40;95449.00;;;;5052736;28;20529;-59
2023/03/12 04:55:16;;;;;;;1.10;1.10;;;;;0.30;95450.00;;;;5052396;28;20284;-60
2023/03/12 04:57:44;;;;;;;1.27;1.27;;;;;0.40;95446.00;;;;5052448;28;20194;-59
2023/03/12 05:00:12;;;;;;;2.20;1.77;;;;;0.40;95459.00;;;;5052542;28;20227;-59
2023/03/12 05:02:41;;;;;;;0.90;0.90;;;;;0.40;95450.00;;;;5052595;28;20201;-59
2023/03/12 05:05:11;;;;;;;1.73;1.63;;;;;0.40;95444.00;;;;5052856;28;20215;-60
2023/03/12 05:07:38;;;;;;;1.83;1.73;;;;;0.50;95449.00;;;;5052876;28;20204;-60
2023/03/12 05:10:07;;;;;;;0.80;0.80;;;;;0.40;95454.00;;;;5052483;28;20193;-59
2023/03/12 05:12:34;;;;;;;0.90;0.90;;;;;0.40;95442.00;;;;5055795;28;20209;-59
2023/03/12 05:15:01;;;;;;;1.23;1.20;;;;;0.40;95452.00;;;;5037769;28;20224;-59
2023/03/12 05:17:29;;;;;;;0.87;0.87;;;;;0.30;95461.00;;;;5055777;28;20244;-59
2023/03/12 05:19:58;;;;;;;0.80;0.80;;;;;0.30;95463.00;;;;5055953;28;20227;-59
2023/03/12 05:22:25;;;;;;;0.87;0.87;;;;;0.50;95450.00;;;;5055995;28;20200;-59
2023/03/12 05:24:53;;;;;;;0.77;0.77;;;;;0.50;95466.00;;;;5055653;28;20228;-60
2023/03/12 05:27:20;;;;;;;1.10;1.10;;;;;0.30;95464.00;;;;5055568;28;20200;-60
2023/03/12 05:29:47;;;;;;;0.80;0.80;;;;;0.20;95453.00;;;;5055555;28;20188;-60
2023/03/12 05:32:15;;;;;;;0.73;0.73;;;;;0.20;95453.00;;;;5055479;28;20204;-60
2023/03/12 05:34:42;;;;;;;0.83;0.83;;;;;0.20;95459.00;;;;5055524;28;20213;-61
2023/03/12 05:37:11;;;;;;;0.87;0.87;;;;;0.20;95461.00;;;;5055384;28;20201;-60
2023/03/12 05:39:45;;;;;;;1.37;1.30;;;;;0.30;95450.00;;;;5055389;28;20222;-60
2023/03/12 05:42:12;;;;;;;0.80;0.80;;;;;0.20;95467.00;;;;5055341;28;20185;-60
2023/03/12 05:44:40;;;;;;;0.93;0.93;;;;;0.20;95461.00;;;;5055247;28;20215;-60
2023/03/12 05:47:09;;;;;;;1.00;1.00;;;;;0.20;95458.00;;;;5055494;28;20190;-60
2023/03/12 05:49:36;;;;;;;0.83;0.83;;;;;0.20;95453.00;;;;5055521;28;20197;-60
2023/03/12 05:52:04;;;;;;;1.80;1.43;;;;;0.30;95449.00;;;;5055947;28;20190;-60
2023/03/12 05:54:33;;;;;;;1.10;1.10;;;;;0.30;95461.00;;;;5055403;28;20273;-60
2023/03/12 05:57:02;;;;;;;1.10;1.10;;;;;0.30;95464.00;;;;5055109;28;20189;-60
2023/03/12 05:59:29;;;;;;;1.10;1.10;;;;;0.40;95466.00;;;;5055788;28;20217;-60
2023/03/12 06:01:57;;;;;;;1.50;1.40;;;;;0.50;95459.00;;;;5055469;28;20542;-61
2023/03/12 06:04:25;;;;;;;0.93;0.93;;;;;0.50;95459.00;;;;5055213;28;20220;-60
2023/03/12 06:06:52;;;;;;;0.87;0.87;;;;;0.50;95452.00;;;;5054919;28;20191;-60
2023/03/12 06:09:20;;;;;;;0.80;0.80;;;;;0.50;95445.00;;;;5054829;28;20240;-60
2023/03/12 06:11:48;;;;;;;0.77;0.77;;;;;0.50;95450.00;;;;5055059;28;20194;-60
2023/03/12 06:14:16;;;;;;;1.80;1.23;;;;;0.50;95439.00;;;;5036609;28;20229;-60
2023/03/12 06:16:43;;;;;;;1.10;1.10;;;;;0.60;95444.00;;;;5054694;28;20198;-62
2023/03/12 06:19:13;;;;;;;0.70;0.70;;;;;0.60;95445.00;;;;5036752;28;20199;-60
2023/03/12 06:21:42;;;;;;;0.73;0.73;;;;;0.70;95439.00;;;;5054766;28;20241;-60
2023/03/12 06:24:09;;;;;;;0.97;0.97;;;;;0.70;95447.00;;;;5036621;28;20222;-60
2023/03/12 06:26:37;;;;;;;1.87;1.70;;;;;0.70;95444.00;;;;5054767;28;20603;-60
2023/03/12 06:29:06;;;;;;;0.80;0.80;;;;;0.60;95446.00;;;;5054423;28;20190;-60
2023/03/12 06:31:33;;;;;;;1.03;1.03;;;;;0.70;95448.00;;;;5054420;28;20209;-60
2023/03/12 06:34:01;;;;;;;0.90;0.90;;;;;0.70;95449.00;;;;5036866;28;20219;-60
2023/03/12 06:36:28;;;;;;;0.90;0.90;;;;;0.70;95442.00;;;;5054273;28;20218;-60
2023/03/12 06:38:55;;;;;;;0.70;0.70;;;;;0.80;95442.00;;;;5054280;28;20282;-59
2023/03/12 06:41:23;;;;;;;0.97;0.97;;;;;0.80;95433.00;;;;5054206;28;20222;-60
2023/03/12 06:43:50;;;;;;;0.87;0.87;;;;;1.00;95425.00;;;;5054122;28;20691;-60
2023/03/12 06:46:21;;;;;;;15.03;1.43;;;;;1.00;95427.00;;;;5054325;28;20203;-60
2023/03/12 06:48:48;;;;;;;1.07;1.07;;;;;1.10;95429.00;;;;5054356;28;20545;-60
2023/03/12 06:51:17;;;;;;;0.80;0.80;;;;;1.20;95446.00;;;;5054035;28;20202;-61
2023/03/12 06:53:45;;;;;;;2.83;1.00;;;;;1.30;95447.00;;;;5053949;28;20768;-60
2023/03/12 06:56:13;;;;;;;1.00;1.00;;;;;1.40;95453.00;;;;5053932;28;20277;-60
2023/03/12 06:58:41;;;;;;;0.77;0.77;;;;;1.20;95444.00;;;;5053907;28;20199;-60
2023/03/12 07:01:08;;;;;;;0.60;0.60;;;;;1.30;95445.00;;;;5053755;28;20226;-60
2023/03/12 07:03:37;;;;;;;1.37;1.27;;;;;1.30;95450.00;;;;5054265;28;20248;-60
2023/03/12 07:06:05;;;;;;;0.70;0.70;;;;;1.30;95451.00;;;;5053723;28;20195;-60
2023/03/12 07:08:33;;;;;;;0.90;0.90;;;;;1.30;95448.00;;;;5053720;28;20213;-60
2023/03/12 07:11:00;;;;;;;0.93;0.93;;;;;1.40;95446.00;;;;5053704;28;20191;-60
2023/03/12 07:13:27;;;;;;;1.40;1.30;;;;;1.50;95464.00;;;;5053862;28;20195;-60
2023/03/12 07:15:55;;;;;;;2.13;1.33;;;;;1.50;95464.00;;;;5053419;28;20231;-60
2023/03/12 07:18:22;;;;;;;1.57;1.47;;;;;1.80;95459.00;;;;5053534;28;20195;-60
2023/03/12 07:20:52;;;;;;;1.20;1.20;;;;;1.80;95454.00;;;;5053688;28;20218;-59
2023/03/12 07:23:20;;;;;;;1.20;1.20;;;;;1.90;95475.00;;;;5054077;28;20207;-60
2023/03/12 07:25:48;;;;;;;1.57;1.43;;;;;1.80;95466.00;;;;5053271;28;20690;-60
2023/03/12 07:28:17;;;;;;;1.07;1.07;;;;;1.90;95458.00;;;;5053531;28;20195;-60
2023/03/12 07:30:49;;;;;;;1.07;1.07;;;;;1.90;95453.00;;;;5036539;28;20187;-60
2023/03/12 07:33:18;;;;;;;1.47;1.37;;;;;1.70;95462.00;;;;5052852;28;20662;-60
2023/03/12 07:35:47;;;;;;;2.30;2.00;;;;;1.90;95463.00;;;;5053166;28;20214;-60
2023/03/12 07:38:15;;;;;;;1.77;1.67;;;;;2.00;95443.00;;;;5053312;28;20219;-60
2023/03/12 07:40:43;;;;;;;0.77;0.77;;;;;2.10;95450.00;;;;5053365;28;20302;-60
2023/03/12 07:43:11;;;;;;;1.17;1.17;;;;;2.50;95446.00;;;;5053396;28;20192;-60
2023/03/12 07:45:39;;;;;;;0.70;0.70;;;;;2.90;95437.00;;;;5053354;28;20290;-60
2023/03/12 07:48:07;;;;;;;1.60;1.07;;;;;3.20;95444.00;;;;5053830;28;20203;-60
2023/03/12 07:50:35;;;;;;;0.90;0.90;;;;;3.00;95434.00;;;;5053369;28;20217;-60
2023/03/12 07:53:04;;;;;;;1.17;1.10;;;;;3.30;95434.00;;;;5053360;28;20201;-60
2023/03/12 07:55:33;;;;;;;1.00;1.00;;;;;3.30;95443.00;;;;5052944;28;20285;-59
2023/03/12 07:58:01;;;;;;;1.77;1.67;;;;;3.40;95443.00;;;;5051782;28;20203;-60
2023/03/12 08:00:29;;;;;;;0.90;0.90;;;;;3.20;95444.00;;;;5053135;28;20215;-60
2023/03/12 08:02:57;;;;;;;1.60;1.50;;;;;3.10;95449.00;;;;5053287;28;20597;-60
2023/03/12 08:05:25;;;;;;;1.00;1.00;;;;;3.20;95452.00;;;;5052895;28;20208;-60
2023/03/12 08:07:54;;;;;;;0.80;0.80;;;;;3.30;95449.00;;;;5052947;28;20196;-60
2023/03/12 08:10:22;;;;;;;2.30;1.90;;;;;3.60;95449.00;;;;5053497;28;20191;-60
2023/03/12 08:12:51;;;;;;;0.90;0.90;;;;;4.00;95452.00;;;;5052793;28;20651;-60
2023/03/12 08:15:19;;;;;;;1.57;1.47;;;;;4.00;95461.00;;;;5051440;28;20223;-60
2023/03/12 08:17:46;;;;;;;1.20;1.20;;;;;3.90;95466.00;;;;5052811;28;20192;-60
2023/03/12 08:20:14;;;;;;;0.80;0.80;;;;;4.10;95472.00;;;;5052961;28;20265;-60
2023/03/12 08:22:41;;;;;;;1.23;1.23;;;;;4.20;95476.00;;;;5053389;28;20254;-60
2023/03/12 08:25:10;;;;;;;0.93;0.93;;;;;4.30;95487.00;;;;5034802;28;20270;-60
2023/03/12 08:27:37;;;;;;;1.20;1.00;;;;;4.20;95481.00;;;;5052768;28;20218;-60
2023/03/12 08:30:08;;;;;;;0.80;0.80;;;;;3.90;95487.00;;;;5053012;28;20249;-60
2023/03/12 08:32:35;;;;;;;1.03;1.03;;;;;3.80;95482.00;;;;5052701;28;20196;-58
2023/03/12 08:35:04;;;;;;;1.10;1.10;;;;;3.60;95488.00;;;;5052652;28;20216;-58
2023/03/12 08:37:31;;;;;;;0.77;0.77;;;;;3.60;95486.00;;;;5052573;28;20189;-58
2023/03/12 08:39:59;;;;;;;0.80;0.80;;;;;3.60;95479.00;;;;5052691;28;20237;-58
2023/03/12 08:42:26;;;;;;;1.43;1.33;;;;;4.00;95486.00;;;;5052812;28;20279;-58
2023/03/12 08:44:54;;;;;;;1.03;1.03;;;;;4.20;95477.00;;;;5052540;28;20299;-58
2023/03/12 08:47:23;;;;;;;1.13;1.13;;;;;4.10;95476.00;;;;5056768;28;20192;-59
2023/03/12 08:49:50;;;;;;;0.80;0.80;;;;;4.60;95491.00;;;;5056938;28;20196;-59
2023/03/12 08:52:18;;;;;;;1.00;1.00;;;;;4.60;95493.00;;;;5056509;28;20195;-59
2023/03/12 08:54:45;;;;;;;1.03;0.93;;;;;4.70;95492.00;;;;5056535;28;20290;-59
2023/03/12 08:57:14;;;;;;;0.93;0.93;;;;;4.30;95494.00;;;;5038384;28;20694;-59
2023/03/12 08:59:41;;;;;;;0.60;0.60;;;;;4.30;95493.00;;;;5056325;28;20237;-59
2023/03/12 09:02:12;;;;;;;1.73;1.57;;;;;4.40;95483.00;;;;5056298;28;20211;-60
2023/03/12 09:04:41;;;;;;;0.97;0.97;;;;;4.40;95489.00;;;;5056288;28;20223;-59
2023/03/12 09:07:09;;;;;;;0.93;0.93;;;;;4.60;95491.00;;;;5054561;28;20667;-59
2023/03/12 09:09:36;;;;;;;0.70;0.70;;;;;4.70;95488.00;;;;5056116;28;20216;-59
2023/03/12 09:12:04;;;;;;;0.93;0.93;;;;;4.90;95507.00;;;;5056739;28;20230;-59
2023/03/12 09:14:31;;;;;;;0.60;0.60;;;;;5.00;95503.00;;;;5056515;28;20223;-60
2023/03/12 09:16:59;;;;;;;0.60;0.60;;;;;4.70;95506.00;;;;5055923;28;20269;-59
2023/03/12 09:19:26;;;;;;;0.93;0.93;;;;;4.80;95519.00;;;;5054547;28;20200;-60
2023/03/12 09:21:55;;;;;;;0.90;0.90;;;;;5.00;95527.00;;;;5056547;28;20219;-60
2023/03/12 09:24:23;;;;;;;1.27;1.20;;;;;4.90;95516.00;;;;5056213;28;20739;-60
2023/03/12 09:26:50;;;;;;;0.87;0.87;;;;;5.10;95510.00;;;;5038285;28;20199;-60
2023/03/12 09:29:18;;;;;;;0.83;0.83;;;;;5.00;95530.00;;;;5055864;28;20243;-64
2023/03/12 09:31:45;;;;;;;0.57;0.57;;;;;5.10;95512.00;;;;5055583;28;20188;-60
2023/03/12 09:34:13;;;;;;;1.80;1.03;;;;;5.30;95532.00;;;;5056055;28;20234;-60
2023/03/12 09:36:40;;;;;;;2.70;2.27;;;;;5.40;95526.00;;;;5055562;28;20192;-60
2023/03/12 09:39:09;;;;;;;1.07;1.03;;;;;5.30;95535.00;;;;5037602;28;20223;-60
2023/03/12 09:41:39;;;;;;;0.90;0.90;;;;;5.40;95534.00;;;;5055459;28;20223;-60
2023/03/12 09:44:15;;;;;;;1.40;1.30;;;;;5.40;95527.00;;;;5055348;28;20231;-60
2023/03/12 09:46:48;;;;;;;0.90;0.90;;;;;5.60;95530.00;;;;5055631;28;20606;-59
2023/03/12 09:49:22;;;;;;;0.60;0.60;;;;;5.70;95525.00;;;;5055883;28;20181;-59
2023/03/12 09:51:54;;;;;;;0.50;0.50;;;;;6.00;95540.00;;;;5037466;28;20186;-59
2023/03/12 09:54:29;;;;;;;0.70;0.70;;;;;5.90;95540.00;;;;5037328;28;20580;-59
2023/03/12 09:57:02;;;;;;;0.93;0.93;;;;;5.90;95543.00;;;;5055048;28;20185;-59
2023/03/12 09:59:30;;;;;;;1.00;1.00;;;;;5.80;95542.00;;;;5054988;28;20180;-58
2023/03/12 10:02:00;;;;;;;0.60;0.60;;;;;5.90;95547.00;;;;5037049;28;20698;-59
2023/03/12 10:04:41;;;;;;;0.60;0.60;;;;;5.90;95546.00;;;;5054880;28;20226;-59
2023/03/12 10:07:17;;;;;;;0.93;0.93;;;;;5.90;95555.00;;;;5054960;28;20185;-58
2023/03/12 10:10:10;;;;;;;0.50;0.50;;;;;6.00;95559.00;;;;5055120;28;20180;-59
2023/03/12 10:12:50;;;;;;;0.90;0.90;;;;;6.10;95559.00;;;;5055149;28;20702;-59
2023/03/12 10:15:31;;;;;;;0.60;0.60;;;;;6.10;95568.00;;;;5054717;28;20231;-60
2023/03/12 10:18:10;;;;;;;0.63;0.63;;;;;6.20;95558.00;;;;5055009;28;20206;-60
2023/03/12 10:20:59;;;;;;;0.50;0.50;;;;;6.40;95562.00;;;;5054796;28;20224;-60
2023/03/12 10:23:37;;;;;;;0.80;0.80;;;;;6.30;95579.00;;;;5054773;28;20631;-59
2023/03/12 10:26:10;;;;;;;0.60;0.60;;;;;6.40;95569.00;;;;5054952;28;20205;-59
2023/03/12 10:28:43;;;;;;;0.60;0.60;;;;;6.50;95576.00;;;;5054492;28;20184;-59
2023/03/12 10:31:18;;;;;;;0.60;0.60;;;;;6.60;95579.00;;;;5054711;28;20182;-59
2023/03/12 10:33:51;;;;;;;0.80;0.80;;;;;6.90;95576.00;;;;5054742;28;20176;-59
2023/03/12 10:36:21;;;;;;;0.60;0.60;;;;;6.80;95575.00;;;;5054885;28;20175;-59
2023/03/12 10:38:48;;;;;;;0.70;0.70;;;;;6.80;95587.00;;;;5054664;28;20184;-59
2023/03/12 10:41:21;;;;;;;0.80;0.80;;;;;7.00;95593.00;;;;5036388;28;20690;-59
2023/03/12 10:43:49;;;;;;;0.50;0.50;;;;;7.10;95580.00;;;;5054544;28;20176;-59
2023/03/12 10:46:41;;;;;;;0.63;0.63;;;;;7.20;95580.00;;;;5054072;28;20211;-60
2023/03/12 10:49:26;;;;;;;0.57;0.57;;;;;7.60;95582.00;;;;5054761;28;20599;-59
2023/03/12 10:51:56;;;;;;;0.43;0.43;;;;;7.90;95594.00;;;;5054062;28;20214;-59
2023/03/12 10:54:28;;;;;;;0.50;0.50;;;;;7.70;95595.00;;;;5054529;28;20575;-60
2023/03/12 10:56:57;;;;;;;0.90;0.90;;;;;7.70;95593.00;;;;5054111;28;20184;-60
2023/03/12 10:59:29;;;;;;;0.50;0.50;;;;;8.00;95602.00;;;;5054026;28;20191;-59
2023/03/12 11:01:58;;;;;;;0.70;0.70;;;;;7.90;95617.00;;;;5054381;28;20283;-59
2023/03/12 11:04:28;;;;;;;0.60;0.60;;;;;7.80;95607.00;;;;5054251;28;20596;-59
2023/03/12 11:07:22;;;;;;;0.70;0.70;;;;;7.90;95610.00;;;;5053730;28;20652;-59
2023/03/12 11:10:14;;;;;;;2.67;1.47;;;;;8.00;95610.00;;;;5053656;28;20183;-59
2023/03/12 11:13:00;;;;;;;0.50;0.50;;;;;7.90;95613.00;;;;5036161;28;20184;-59
2023/03/12 11:15:31;;;;;;;1.27;1.17;;;;;7.80;95613.00;;;;5053461;28;20772;-59
2023/03/12 11:18:25;;;;;;;0.60;0.60;;;;;7.90;95608.00;;;;5053862;28;20180;-60
2023/03/12 11:20:55;;;;;;;2.17;1.30;;;;;8.10;95609.00;;;;5053747;28;20188;-59
2023/03/12 11:23:26;;;;;;;6.03;1.20;;;;;8.20;95612.00;;;;5053515;28;20227;-59
2023/03/12 11:25:58;;;;;;;0.50;0.50;;;;;7.90;95614.00;;;;5053415;28;20208;-60
2023/03/12 11:28:35;;;;;;;0.60;0.60;;;;;8.00;95619.00;;;;5053513;28;20275;-59
2023/03/12 11:31:05;;;;;;;0.50;0.50;;;;;8.20;95618.00;;;;5053517;28;20180;-59
2023/03/12 11:33:33;;;;;;;0.73;0.73;;;;;8.20;95615.00;;;;5052071;28;20207;-60
2023/03/12 11:36:17;;;;;;;0.77;0.77;;;;;8.20;95608.00;;;;5053270;28;20196;-59
2023/03/12 11:38:54;;;;;;;7.73;1.33;;;;;8.50;95613.00;;;;5053577;28;20264;-59
2023/03/12 11:41:39;;;;;;;0.60;0.60;;;;;8.90;95598.00;;;;5053218;28;20693;-60
2023/03/12 11:44:27;;;;;;;0.50;0.50;;;;;8.60;95610.00;;;;5053137;28;20212;-59
2023/03/12 11:47:13;;;;;;;0.57;0.57;;;;;8.80;95605.00;;;;5053172;28;20207;-59
2023/03/12 11:50:03;;;;;;;0.70;0.70;;;;;9.50;95585.00;;;;5053227;28;20714;-59
2023/03/12 11:52:43;;;;;;;0.50;0.50;;;;;9.80;95623.00;;;;5053288;28;20176;-59
2023/03/12 11:55:30;;;;;;;0.60;0.60;;;;;9.30;95610.00;;;;5053061;28;20218;-60
2023/03/12 11:58:10;;;;;;;0.70;0.70;;;;;9.40;95597.00;;;;5052915;28;20180;-60
2023/03/12 12:00:48;;;;;;;0.67;0.67;;;;;9.30;95580.00;;;;5035226;28;20191;-60
2023/03/12 12:03:55;;;;;;;0.77;0.77;;;;;9.60;95604.00;;;;5052852;28;20662;-59
2023/03/12 12:06:30;;;;;;;1.60;1.30;;;;;9.40;95582.00;;;;5017281;28;20203;-59
2023/03/12 12:09:14;;;;;;;0.50;0.50;;;;;10.50;95558.00;;;;5053480;28;20200;-59
2023/03/12 12:11:53;;;;;;;0.60;0.60;;;;;10.90;95554.00;;;;5053169;28;20181;-59
2023/03/12 12:14:35;;;;;;;3.80;1.17;;;;;10.70;95557.00;;;;5052909;28;20219;-59
2023/03/12 12:17:16;;;;;;;1.23;1.23;;;;;11.10;95558.00;;;;5053075;28;20539;-59
2023/03/12 12:19:56;;;;;;;0.50;0.50;;;;;11.60;95545.00;;;;5054087;28;20266;-59
2023/03/12 12:22:32;;;;;;;0.60;0.60;;;;;11.70;95566.00;;;;5057440;28;20199;-59
2023/03/12 12:25:21;;;;;;;0.60;0.60;;;;;10.90;95570.00;;;;5057068;28;20207;-60
2023/03/12 12:28:01;;;;;;;1.53;1.43;;;;;10.20;95562.00;;;;5038892;28;20298;-59
2023/03/12 12:30:40;;;;;;;0.70;0.70;;;;;9.80;95562.00;;;;5056894;28;20187;-59
2023/03/12 12:33:22;;;;;;;0.60;0.60;;;;;9.70;95566.00;;;;5038797;28;20196;-60
2023/03/12 12:35:50;;;;;;;0.50;0.50;;;;;9.70;95563.00;;;;5056699;28;20255;-58
2023/03/12 12:38:29;;;;;;;0.90;0.90;;;;;9.60;95576.00;;;;5057126;28;20257;-58